createdAt,value
2022-10-01T00:01:07.881Z,5.74
2022-10-01T00:03:35.422Z,5.74
2022-10-01T00:06:09.516Z,5.71
2022-10-01T00:08:37.352Z,5.68
2022-10-01T00:11:07.901Z,5.66
2022-10-01T00:13:35.992Z,5.66
2022-10-01T00:16:04.638Z,5.64
2022-10-01T00:18:31.117Z,5.63
2022-10-01T00:20:57.521Z,5.62
2022-10-01T00:23:23.960Z,5.61
2022-10-01T00:25:53.827Z,5.61
2022-10-01T00:28:20.276Z,5.57
2022-10-01T00:30:48.018Z,5.57
2022-10-01T00:33:14.489Z,5.32
2022-10-01T00:35:41.558Z,5.24
2022-10-01T00:38:08.403Z,5.20
2022-10-01T00:40:34.803Z,5.19
2022-10-01T00:43:01.305Z,5.20
2022-10-01T00:45:27.837Z,5.23
2022-10-01T00:47:56.429Z,5.26
2022-10-01T00:50:28.470Z,5.29
2022-10-01T00:52:57.013Z,5.33
2022-10-01T00:55:26.817Z,5.36
2022-10-01T00:57:55.070Z,5.39
2022-10-01T01:00:21.719Z,5.40
2022-10-01T01:02:48.273Z,5.41
2022-10-01T01:05:14.987Z,5.42
2022-10-01T01:07:47.073Z,5.43
2022-10-01T01:10:16.289Z,5.44
2022-10-01T01:12:44.372Z,5.46
2022-10-01T01:15:28.820Z,5.46
2022-10-01T01:18:01.472Z,5.48
2022-10-01T01:20:43.197Z,5.47
2022-10-01T01:23:16.251Z,5.46
2022-10-01T01:25:48.202Z,5.46
2022-10-01T01:28:20.795Z,5.45
2022-10-01T01:30:49.236Z,5.43
2022-10-01T01:33:18.051Z,5.43
2022-10-01T01:35:47.476Z,5.43
2022-10-01T01:38:16.382Z,5.42
2022-10-01T01:40:45.266Z,5.43
2022-10-01T01:43:17.568Z,5.43
2022-10-01T01:45:45.211Z,5.44
2022-10-01T01:48:13.241Z,5.43
2022-10-01T01:50:44.610Z,5.43
2022-10-01T01:53:11.443Z,5.40
2022-10-01T01:55:38.479Z,5.40
2022-10-01T01:58:04.944Z,5.40
2022-10-01T02:00:31.374Z,5.40
2022-10-01T02:02:58.049Z,5.37
2022-10-01T02:05:27.373Z,5.37
2022-10-01T02:08:02.944Z,5.34
2022-10-01T02:10:29.348Z,5.34
2022-10-01T02:13:18.707Z,5.32
2022-10-01T02:16:04.328Z,5.31
2022-10-01T02:18:48.241Z,5.32
2022-10-01T02:21:30.820Z,5.28
2022-10-01T02:23:58.254Z,5.28
2022-10-01T02:26:27.241Z,5.26
2022-10-01T02:28:55.834Z,5.23
2022-10-01T02:31:23.026Z,5.22
2022-10-01T02:33:51.937Z,5.20
2022-10-01T02:36:19.724Z,5.19
2022-10-01T02:38:50.229Z,5.17
2022-10-01T02:41:20.236Z,5.16
2022-10-01T02:44:09.627Z,5.14
2022-10-01T02:46:40.786Z,5.12
2022-10-01T02:49:07.196Z,5.09
2022-10-01T02:51:42.472Z,5.09
2022-10-01T02:54:13.297Z,5.05
2022-10-01T02:56:59.081Z,5.05
2022-10-01T02:59:25.456Z,5.01
2022-10-01T03:01:52.020Z,5.00
2022-10-01T03:04:19.255Z,4.97
2022-10-01T03:06:46.409Z,4.97
2022-10-01T03:09:13.254Z,4.95
2022-10-01T03:11:39.721Z,4.94
2022-10-01T03:14:06.732Z,4.93
2022-10-01T03:16:33.273Z,4.87
2022-10-01T03:18:59.756Z,4.87
2022-10-01T03:21:26.212Z,4.85
2022-10-01T03:23:52.566Z,4.84
2022-10-01T03:26:19.104Z,4.84
2022-10-01T03:28:45.547Z,4.88
2022-10-01T03:31:12.219Z,4.90
2022-10-01T03:33:38.636Z,4.91
2022-10-01T03:36:05.285Z,4.92
2022-10-01T03:38:31.719Z,4.97
2022-10-01T03:40:58.324Z,4.98
2022-10-01T03:43:27.100Z,5.01
2022-10-01T03:45:53.627Z,5.03
2022-10-01T03:48:21.170Z,5.03
2022-10-01T03:50:54.804Z,5.04
2022-10-01T03:53:21.642Z,5.07
2022-10-01T03:55:48.224Z,5.10
2022-10-01T03:58:14.676Z,5.12
2022-10-01T04:00:41.803Z,5.16
2022-10-01T04:03:08.369Z,5.20
2022-10-01T04:05:34.802Z,5.20
2022-10-01T04:08:01.464Z,5.23
2022-10-01T04:10:27.894Z,5.25
2022-10-01T04:12:55.654Z,5.26
2022-10-01T04:15:22.524Z,5.23
2022-10-01T04:17:49.264Z,5.26
2022-10-01T04:20:15.715Z,5.31
2022-10-01T04:22:42.522Z,5.36
2022-10-01T04:25:12.542Z,5.38
2022-10-01T04:27:39.657Z,5.42
2022-10-01T04:30:06.641Z,5.44
2022-10-01T04:32:33.092Z,5.50
2022-10-01T04:34:59.516Z,5.54
2022-10-01T04:37:27.476Z,5.58
2022-10-01T04:39:54.400Z,5.61
2022-10-01T04:42:21.329Z,5.66
2022-10-01T04:44:47.823Z,5.70
2022-10-01T04:47:14.280Z,5.74
2022-10-01T04:49:40.728Z,5.79
2022-10-01T04:52:07.098Z,5.83
2022-10-01T04:54:33.484Z,5.86
2022-10-01T04:56:59.910Z,5.90
2022-10-01T04:59:26.385Z,5.92
2022-10-01T05:01:52.865Z,5.94
2022-10-01T05:04:19.320Z,5.98
2022-10-01T05:06:46.316Z,6.04
2022-10-01T05:09:12.688Z,6.10
2022-10-01T05:11:39.173Z,6.12
2022-10-01T05:14:05.703Z,6.13
2022-10-01T05:16:32.143Z,6.16
2022-10-01T05:18:59.008Z,6.20
2022-10-01T05:21:25.690Z,6.26
2022-10-01T05:23:52.477Z,6.33
2022-10-01T05:26:18.936Z,6.38
2022-10-01T05:28:45.902Z,6.48
2022-10-01T05:31:13.033Z,6.57
2022-10-01T05:33:40.356Z,6.67
2022-10-01T05:36:06.999Z,6.82
2022-10-01T05:38:37.168Z,6.91
2022-10-01T05:41:04.203Z,7.00
2022-10-01T05:43:31.375Z,7.10
2022-10-01T05:46:05.405Z,7.21
2022-10-01T05:48:37.755Z,7.31
2022-10-01T05:51:06.788Z,7.43
2022-10-01T05:53:33.439Z,7.53
2022-10-01T05:56:02.961Z,7.61
2022-10-01T05:58:29.358Z,7.70
2022-10-01T06:00:56.134Z,7.80
2022-10-01T06:03:22.741Z,7.84
2022-10-01T06:05:49.149Z,7.90
2022-10-01T06:08:15.770Z,7.91
2022-10-01T06:10:42.406Z,7.99
2022-10-01T06:13:08.801Z,8.02
2022-10-01T06:15:39.986Z,8.05
2022-10-01T06:18:07.908Z,8.11
2022-10-01T06:20:34.786Z,8.11
2022-10-01T06:23:01.282Z,8.13
2022-10-01T06:25:31.216Z,8.18
2022-10-01T06:27:58.902Z,8.22
2022-10-01T06:30:28.942Z,8.29
2022-10-01T06:33:09.074Z,8.31
2022-10-01T06:35:36.266Z,8.34
2022-10-01T06:38:02.869Z,8.38
2022-10-01T06:40:29.905Z,8.41
2022-10-01T06:42:59.353Z,8.49
2022-10-01T06:45:26.606Z,8.57
2022-10-01T06:47:54.090Z,8.66
2022-10-01T06:50:20.493Z,8.75
2022-10-01T06:52:49.955Z,8.81
2022-10-01T06:55:20.425Z,8.86
2022-10-01T06:57:47.025Z,8.91
2022-10-01T07:00:14.412Z,8.96
2022-10-01T07:02:41.036Z,9.01
2022-10-01T07:05:08.132Z,9.07
2022-10-01T07:07:37.167Z,9.12
2022-10-01T07:10:05.172Z,9.16
2022-10-01T07:12:31.645Z,9.21
2022-10-01T07:14:58.000Z,9.26
2022-10-01T07:17:24.674Z,9.31
2022-10-01T07:19:51.087Z,9.38
2022-10-01T07:22:19.347Z,9.40
2022-10-01T07:24:46.476Z,9.44
2022-10-01T07:27:13.940Z,9.42
2022-10-01T07:29:41.791Z,9.46
2022-10-01T07:32:10.349Z,9.50
2022-10-01T07:34:38.261Z,9.51
2022-10-01T07:37:04.709Z,9.53
2022-10-01T07:39:31.251Z,9.57
2022-10-01T07:41:58.974Z,9.59
2022-10-01T07:44:26.693Z,9.62
2022-10-01T07:46:53.117Z,9.64
2022-10-01T07:49:19.778Z,9.65
2022-10-01T07:51:46.183Z,9.67
2022-10-01T07:54:13.749Z,9.68
2022-10-01T07:56:40.221Z,9.72
2022-10-01T07:59:07.974Z,9.77
2022-10-01T08:01:34.539Z,9.88
2022-10-01T08:04:01.356Z,9.94
2022-10-01T08:06:27.803Z,10.00
2022-10-01T08:08:54.306Z,10.07
2022-10-01T08:11:20.779Z,10.15
2022-10-01T08:13:47.432Z,10.22
2022-10-01T08:16:14.413Z,10.33
2022-10-01T08:18:40.861Z,10.44
2022-10-01T08:21:07.924Z,10.55
2022-10-01T08:23:34.605Z,10.59
2022-10-01T08:26:02.091Z,10.67
2022-10-01T08:28:28.610Z,10.75
2022-10-01T08:30:56.106Z,10.83
2022-10-01T08:33:23.004Z,10.92
2022-10-01T08:35:49.500Z,10.97
2022-10-01T08:38:16.453Z,11.08
2022-10-01T08:40:45.845Z,11.13
2022-10-01T08:43:29.024Z,11.20
2022-10-01T08:45:59.787Z,11.25
2022-10-01T08:48:32.607Z,11.27
2022-10-01T08:51:04.813Z,11.35
2022-10-01T08:53:37.860Z,11.38
2022-10-01T08:56:04.794Z,11.44
2022-10-01T08:58:40.606Z,11.49
2022-10-01T09:01:07.058Z,11.53
2022-10-01T09:03:33.845Z,11.61
2022-10-01T09:06:11.837Z,11.70
2022-10-01T09:08:47.431Z,11.74
2022-10-01T09:11:22.000Z,11.85
2022-10-01T09:14:03.283Z,11.92
2022-10-01T09:16:35.447Z,11.98
2022-10-01T09:19:20.599Z,12.12
2022-10-01T09:22:10.386Z,12.20
2022-10-01T09:24:42.419Z,12.23
2022-10-01T09:27:15.197Z,12.24
2022-10-01T09:29:47.623Z,12.18
2022-10-01T09:32:17.897Z,12.18
2022-10-01T09:34:44.683Z,12.17
2022-10-01T09:37:14.905Z,12.11
2022-10-01T09:39:53.449Z,12.08
2022-10-01T09:42:27.013Z,12.14
2022-10-01T09:44:54.647Z,12.16
2022-10-01T09:47:22.767Z,12.19
2022-10-01T09:49:49.540Z,12.24
2022-10-01T09:52:28.307Z,12.29
2022-10-01T09:55:02.151Z,12.24
2022-10-01T09:57:32.343Z,12.26
2022-10-01T10:00:04.577Z,12.29
2022-10-01T10:02:49.097Z,12.20
2022-10-01T10:05:20.083Z,12.21
2022-10-01T10:07:47.896Z,12.22
2022-10-01T10:10:25.548Z,12.25
2022-10-01T10:13:17.324Z,12.25
2022-10-01T10:16:04.026Z,12.28
2022-10-01T10:18:35.458Z,12.36
2022-10-01T10:21:04.301Z,12.36
2022-10-01T10:23:31.450Z,12.39
2022-10-01T10:26:02.872Z,12.38
2022-10-01T10:28:42.157Z,12.39
2022-10-01T10:31:13.776Z,12.43
2022-10-01T10:33:45.757Z,12.42
2022-10-01T10:36:14.624Z,12.42
2022-10-01T10:38:45.336Z,12.37
2022-10-01T10:41:16.752Z,12.33
2022-10-01T10:43:44.308Z,12.35
2022-10-01T10:46:11.007Z,12.27
2022-10-01T10:48:44.040Z,12.22
2022-10-01T10:51:10.654Z,12.15
2022-10-01T10:53:44.399Z,12.01
2022-10-01T10:56:17.678Z,11.93
2022-10-01T10:58:45.251Z,11.86
2022-10-01T11:01:20.420Z,11.73
2022-10-01T11:03:48.541Z,11.65
2022-10-01T11:06:16.721Z,11.59
2022-10-01T11:08:45.344Z,11.59
2022-10-01T11:11:28.186Z,11.51
2022-10-01T11:14:01.146Z,11.45
2022-10-01T11:16:33.590Z,11.44
2022-10-01T11:19:01.466Z,11.45
2022-10-01T11:21:47.904Z,11.43
2022-10-01T11:24:17.282Z,11.36
2022-10-01T11:27:03.991Z,11.35
2022-10-01T11:29:30.385Z,11.32
2022-10-01T11:32:02.961Z,11.29
2022-10-01T11:34:29.288Z,11.25
2022-10-01T11:37:14.313Z,11.23
2022-10-01T11:39:42.786Z,11.14
2022-10-01T11:42:09.167Z,11.05
2022-10-01T11:44:53.285Z,10.97
2022-10-01T11:47:34.020Z,11.03
2022-10-01T11:50:14.783Z,10.98
2022-10-01T11:52:46.447Z,11.01
2022-10-01T11:55:43.156Z,11.00
2022-10-01T11:58:34.150Z,10.90
2022-10-01T12:01:05.759Z,10.84
2022-10-01T12:06:26.795Z,10.86
2022-10-01T12:09:15.196Z,10.88
2022-10-01T12:12:07.897Z,10.81
2022-10-01T12:14:54.537Z,10.85
2022-10-01T12:17:32.506Z,10.79
2022-10-01T12:20:01.652Z,10.82
2022-10-01T12:22:33.124Z,10.70
2022-10-01T12:24:59.669Z,10.76
2022-10-01T12:27:35.713Z,10.71
2022-10-01T12:30:04.487Z,10.71
2022-10-01T12:32:43.034Z,10.70
2022-10-01T12:35:21.933Z,10.65
2022-10-01T12:37:49.258Z,10.61
2022-10-01T12:40:28.014Z,10.58
2022-10-01T12:43:04.543Z,10.54
2022-10-01T12:45:45.552Z,10.53
2022-10-01T12:48:28.348Z,10.54
2022-10-01T12:51:14.993Z,10.53
2022-10-01T12:54:00.629Z,10.53
2022-10-01T12:56:34.349Z,10.58
2022-10-01T12:59:11.998Z,10.60
2022-10-01T13:01:51.930Z,10.58
2022-10-01T13:04:44.621Z,10.60
2022-10-01T13:07:29.906Z,10.65
2022-10-01T13:10:04.728Z,10.69
2022-10-01T13:12:56.551Z,10.74
2022-10-01T13:15:30.021Z,10.77
2022-10-01T13:18:09.390Z,10.75
2022-10-01T13:20:42.146Z,10.76
2022-10-01T13:23:23.608Z,10.71
2022-10-01T13:25:58.905Z,10.75
2022-10-01T13:28:32.795Z,10.75
2022-10-01T13:31:00.817Z,10.71
2022-10-01T13:33:27.313Z,10.75
2022-10-01T13:35:55.479Z,10.73
2022-10-01T13:38:46.133Z,10.70
2022-10-01T13:41:18.400Z,10.61
2022-10-01T13:44:02.871Z,10.63
2022-10-01T13:46:31.818Z,10.61
2022-10-01T13:49:15.426Z,10.60
2022-10-01T13:51:42.735Z,10.63
2022-10-01T13:54:18.710Z,10.61
2022-10-01T13:56:45.272Z,10.59
2022-10-01T13:59:27.735Z,10.58
2022-10-01T14:01:54.457Z,10.59
2022-10-01T14:04:38.691Z,10.55
2022-10-01T14:07:14.491Z,10.56
2022-10-01T14:09:45.236Z,10.54
2022-10-01T14:12:50.092Z,10.55
2022-10-01T14:15:40.070Z,10.55
2022-10-01T14:18:08.844Z,10.54
2022-10-01T14:20:54.263Z,10.55
2022-10-01T14:23:35.626Z,10.57
2022-10-01T14:26:47.120Z,10.54
2022-10-01T14:29:19.421Z,10.57
2022-10-01T14:31:51.095Z,10.53
2022-10-01T14:34:28.227Z,10.53
2022-10-01T14:36:55.688Z,10.51
2022-10-01T14:39:29.193Z,10.49
2022-10-01T14:41:56.976Z,10.48
2022-10-01T14:44:26.015Z,10.54
2022-10-01T14:46:53.625Z,10.52
2022-10-01T14:49:27.732Z,10.55
2022-10-01T14:52:03.367Z,10.57
2022-10-01T14:54:31.420Z,10.63
2022-10-01T14:56:58.328Z,10.62
2022-10-01T14:59:34.331Z,10.63
2022-10-01T15:02:02.186Z,10.58
2022-10-01T15:04:28.747Z,10.61
2022-10-01T15:07:02.902Z,10.63
2022-10-01T15:09:33.634Z,10.64
2022-10-01T15:12:00.274Z,10.65
2022-10-01T15:14:27.151Z,10.63
2022-10-01T15:16:53.787Z,10.65
2022-10-01T15:19:22.997Z,10.73
2022-10-01T15:21:59.505Z,10.89
2022-10-01T15:24:34.960Z,10.87
2022-10-01T15:27:01.707Z,10.89
2022-10-01T15:29:28.150Z,10.93
2022-10-01T15:31:56.754Z,11.00
2022-10-01T15:34:25.314Z,11.06
2022-10-01T15:36:52.286Z,11.08
2022-10-01T15:39:28.246Z,11.23
2022-10-01T15:41:55.038Z,11.28
2022-10-01T15:44:41.370Z,11.26
2022-10-01T15:47:20.047Z,11.36
2022-10-01T15:50:05.282Z,11.48
2022-10-01T15:52:55.724Z,11.48
2022-10-01T15:55:31.387Z,11.46
2022-10-01T15:58:03.914Z,11.51
2022-10-01T16:00:32.201Z,11.50
2022-10-01T16:02:59.089Z,11.45
2022-10-01T16:05:28.367Z,11.43
2022-10-01T16:07:58.503Z,11.41
2022-10-01T16:10:30.258Z,11.27
2022-10-01T16:12:56.668Z,11.33
2022-10-01T16:15:26.482Z,11.25
2022-10-01T16:17:54.338Z,11.27
2022-10-01T16:20:32.735Z,11.24
2022-10-01T16:23:18.577Z,11.26
2022-10-01T16:25:45.350Z,11.13
2022-10-01T16:28:28.829Z,11.20
2022-10-01T16:30:55.524Z,11.18
2022-10-01T16:33:21.957Z,11.17
2022-10-01T16:35:48.549Z,11.13
2022-10-01T16:38:15.045Z,11.07
2022-10-01T16:40:47.909Z,11.05
2022-10-01T16:43:24.381Z,11.04
2022-10-01T16:45:51.129Z,11.07
2022-10-01T16:48:19.632Z,11.00
2022-10-01T16:50:47.054Z,11.00
2022-10-01T16:53:15.374Z,10.94
2022-10-01T16:55:42.662Z,10.95
2022-10-01T16:58:09.137Z,10.93
2022-10-01T17:00:37.179Z,10.93
2022-10-01T17:03:05.568Z,10.95
2022-10-01T17:05:35.837Z,10.96
2022-10-01T17:08:05.023Z,10.89
2022-10-01T17:10:35.931Z,10.82
2022-10-01T17:13:03.546Z,10.79
2022-10-01T17:15:30.429Z,10.81
2022-10-01T17:17:57.548Z,10.87
2022-10-01T17:20:25.448Z,10.88
2022-10-01T17:22:51.961Z,10.89
2022-10-01T17:25:19.831Z,10.89
2022-10-01T17:27:46.638Z,10.91
2022-10-01T17:30:13.091Z,10.95
2022-10-01T17:32:40.274Z,11.00
2022-10-01T17:35:07.209Z,11.00
2022-10-01T17:37:34.546Z,11.10
2022-10-01T17:40:01.008Z,11.01
2022-10-01T17:42:27.411Z,11.05
2022-10-01T17:44:54.860Z,11.07
2022-10-01T17:47:21.270Z,11.10
2022-10-01T17:49:47.697Z,11.14
2022-10-01T17:52:14.068Z,11.20
2022-10-01T17:54:40.471Z,11.19
2022-10-01T17:57:10.736Z,11.23
2022-10-01T17:59:37.693Z,11.31
2022-10-01T18:02:18.667Z,11.38
2022-10-01T18:04:51.172Z,11.37
2022-10-01T18:07:17.592Z,11.41
2022-10-01T18:09:46.088Z,11.48
2022-10-01T18:12:13.270Z,11.53
2022-10-01T18:14:39.781Z,11.54
2022-10-01T18:17:06.391Z,11.55
2022-10-01T18:22:19.427Z,11.62
2022-10-01T18:24:45.891Z,11.65
2022-10-01T18:27:13.056Z,11.69
2022-10-01T18:29:39.529Z,11.61
2022-10-01T18:32:20.841Z,11.60
2022-10-01T18:35:00.633Z,11.69
2022-10-01T18:37:27.053Z,11.62
2022-10-01T18:39:57.946Z,11.63
2022-10-01T18:42:31.514Z,11.63
2022-10-01T18:44:59.390Z,11.60
2022-10-01T18:47:40.865Z,11.61
2022-10-01T18:50:07.299Z,11.54
2022-10-01T18:52:46.927Z,11.51
2022-10-01T18:55:27.340Z,11.50
2022-10-01T18:58:09.379Z,11.46
2022-10-01T19:00:49.162Z,11.45
2022-10-01T19:03:29.921Z,11.42
2022-10-01T19:06:04.007Z,11.34
2022-10-01T19:08:31.311Z,11.31
2022-10-01T19:11:18.107Z,11.35
2022-10-01T19:13:51.506Z,11.35
2022-10-01T19:16:53.382Z,11.39
2022-10-01T19:19:22.525Z,11.45
2022-10-01T19:21:55.723Z,11.49
2022-10-01T19:24:29.875Z,11.49
2022-10-01T19:27:34.828Z,11.43
2022-10-01T19:30:04.571Z,11.45
2022-10-01T19:32:36.439Z,11.50
2022-10-01T19:35:21.445Z,11.50
2022-10-01T19:37:50.290Z,11.52
2022-10-01T19:40:30.241Z,11.46
2022-10-01T19:43:02.786Z,11.47
2022-10-01T19:45:33.516Z,11.42
2022-10-01T19:48:08.824Z,11.44
2022-10-01T19:50:38.410Z,11.44
2022-10-01T19:53:13.057Z,11.40
2022-10-01T19:55:39.825Z,11.47
2022-10-01T19:58:14.188Z,11.48
2022-10-01T20:00:40.743Z,11.46
2022-10-01T20:03:13.231Z,11.49
2022-10-01T20:05:54.817Z,11.43
2022-10-01T20:08:25.033Z,11.45
2022-10-01T20:10:54.680Z,11.49
2022-10-01T20:13:35.568Z,11.43
2022-10-01T20:16:13.323Z,11.38
2022-10-01T20:18:53.576Z,11.36
2022-10-01T20:21:29.806Z,11.35
2022-10-01T20:23:58.007Z,11.29
2022-10-01T20:26:24.499Z,11.32
2022-10-01T20:28:57.089Z,11.34
2022-10-01T20:31:33.213Z,11.32
2022-10-01T20:34:07.553Z,11.32
2022-10-01T20:36:40.959Z,11.28
2022-10-01T20:39:19.188Z,11.33
2022-10-01T20:41:47.014Z,11.25
2022-10-01T20:44:22.843Z,11.26
2022-10-01T20:46:54.660Z,11.19
2022-10-01T20:49:41.298Z,11.23
2022-10-01T20:52:17.160Z,11.21
2022-10-01T20:54:44.682Z,11.18
2022-10-01T20:57:16.386Z,11.11
2022-10-01T20:59:44.100Z,11.17
2022-10-01T21:02:33.744Z,11.16
2022-10-01T21:05:16.038Z,11.13
2022-10-01T21:07:57.862Z,11.11
2022-10-01T21:10:35.603Z,11.07
2022-10-01T21:13:14.908Z,11.11
2022-10-01T21:16:04.650Z,11.10
2022-10-01T21:18:31.058Z,11.00
2022-10-01T21:21:04.435Z,11.05
2022-10-01T21:23:46.187Z,11.08
2022-10-01T21:26:33.913Z,11.05
2022-10-01T21:29:00.500Z,11.04
2022-10-01T21:31:42.868Z,11.05
2022-10-01T21:34:13.991Z,11.07
2022-10-01T21:36:52.471Z,11.09
2022-10-01T21:39:31.383Z,11.08
2022-10-01T21:42:10.274Z,11.07
2022-10-01T21:44:50.100Z,11.04
2022-10-01T21:47:29.247Z,11.03
2022-10-01T21:49:58.526Z,11.03
2022-10-01T21:52:37.911Z,11.05
2022-10-01T21:55:25.595Z,11.08
2022-10-01T21:58:05.858Z,11.07
2022-10-01T22:00:32.557Z,11.10
2022-10-01T22:03:05.115Z,11.13
2022-10-01T22:05:51.617Z,11.13
2022-10-01T22:08:18.721Z,11.10
2022-10-01T22:10:53.159Z,11.10
2022-10-01T22:13:21.496Z,11.10
2022-10-01T22:15:52.004Z,11.02
2022-10-01T22:18:24.583Z,11.04
2022-10-01T22:20:51.751Z,11.00
2022-10-01T22:23:18.682Z,11.00
2022-10-01T22:25:50.345Z,10.97
2022-10-01T22:28:19.863Z,10.97
2022-10-01T22:30:49.836Z,11.00
2022-10-01T22:33:16.818Z,11.00
2022-10-01T22:35:46.856Z,10.93
2022-10-01T22:38:13.419Z,10.92
2022-10-01T22:40:42.183Z,10.89
2022-10-01T22:43:11.053Z,10.87
2022-10-01T22:45:56.420Z,10.83
2022-10-01T22:48:23.007Z,10.82
2022-10-01T22:50:54.515Z,10.77
2022-10-01T22:53:20.885Z,10.71
2022-10-01T22:55:53.221Z,10.76
2022-10-01T22:58:37.412Z,10.75
2022-10-01T23:01:10.471Z,10.76
2022-10-01T23:03:49.942Z,10.77
2022-10-01T23:06:22.140Z,10.76
2022-10-01T23:08:56.762Z,10.78
2022-10-01T23:11:41.983Z,10.70
2022-10-01T23:14:18.818Z,10.66
2022-10-01T23:16:45.240Z,10.67
2022-10-01T23:19:21.090Z,10.65
2022-10-01T23:22:06.145Z,10.67
2022-10-01T23:24:51.402Z,10.75
2022-10-01T23:27:32.550Z,10.76
2022-10-01T23:30:03.197Z,10.75
2022-10-01T23:32:50.140Z,10.73
2022-10-01T23:35:20.675Z,10.70
2022-10-01T23:37:59.156Z,10.73
2022-10-01T23:40:28.623Z,10.75
2022-10-01T23:43:18.350Z,10.74
2022-10-01T23:45:48.271Z,10.71
2022-10-01T23:48:14.754Z,10.67
2022-10-01T23:50:41.499Z,10.65
2022-10-01T23:53:16.528Z,10.66
2022-10-01T23:56:03.093Z,10.66
2022-10-01T23:58:32.350Z,10.65
